Time;durP1;ratioP1;P1;durP2;ratioP2;P2;SDS_P1;SDS_P2;PMS_P1;PMS_P2;Temp;Humidity;BMP_temperature;BMP_pressure;BME280_temperature;BME280_humidity;BME280_pressure;Samples;Min_cycle;Max_cycle;Signal;HPM_P1;HPM_P2
2021/11/27 00:02:22;;;;;;;34.45;16.85;;;1.60;99.90;;;;;;5110861;28;20059;-70
2021/11/27 00:04:50;;;;;;;34.22;17.33;;;1.60;99.90;;;;;;5111690;28;20039;-71
2021/11/27 00:07:17;;;;;;;35.65;17.42;;;1.60;99.90;;;;;;5104245;28;20064;-70
2021/11/27 00:09:44;;;;;;;36.38;17.83;;;1.70;99.90;;;;;;5088035;28;20542;-70
2021/11/27 00:12:12;;;;;;;33.65;16.40;;;1.60;99.90;;;;;;5107749;28;20040;-71
2021/11/27 00:14:39;;;;;;;29.33;16.48;;;1.60;99.90;;;;;;5114324;28;20036;-71
2021/11/27 00:17:06;;;;;;;32.63;16.98;;;1.60;99.90;;;;;;5108561;28;20044;-71
2021/11/27 00:19:34;;;;;;;31.20;16.33;;;1.70;99.90;;;;;;5083581;28;20040;-71
2021/11/27 00:22:01;;;;;;;36.15;16.73;;;1.80;99.90;;;;;;5094028;28;20482;-71
2021/11/27 00:24:29;;;;;;;32.38;17.08;;;1.70;99.90;;;;;;5076710;28;20036;-70
2021/11/27 00:26:56;;;;;;;29.95;16.08;;;1.70;99.90;;;;;;5094107;28;20046;-71
2021/11/27 00:29:23;;;;;;;33.53;16.80;;;1.70;99.90;;;;;;5089353;28;20481;-71
2021/11/27 00:31:51;;;;;;;30.55;16.73;;;1.90;99.90;;;;;;5109270;28;20044;-71
2021/11/27 00:34:19;;;;;;;31.60;14.85;;;2.00;99.90;;;;;;5095249;28;20044;-70
2021/11/27 00:36:47;;;;;;;29.40;15.88;;;2.00;99.90;;;;;;5100247;28;20066;-71
2021/11/27 00:39:17;;;;;;;27.20;15.57;;;2.10;99.90;;;;;;5083625;28;20063;-70
2021/11/27 00:41:46;;;;;;;30.75;16.13;;;2.20;99.90;;;;;;5097418;28;20471;-70
2021/11/27 00:44:14;;;;;;;28.13;15.48;;;2.20;99.90;;;;;;5080693;28;20059;-70
2021/11/27 00:46:41;;;;;;;29.73;14.68;;;2.20;99.90;;;;;;5078076;28;20474;-70
2021/11/27 00:49:12;;;;;;;27.98;15.27;;;2.20;99.90;;;;;;5080654;28;20047;-70
2021/11/27 00:51:40;;;;;;;31.33;16.80;;;2.30;99.90;;;;;;5095092;28;20120;-71
2021/11/27 00:54:07;;;;;;;26.60;15.55;;;2.30;99.90;;;;;;5096421;28;20040;-71
2021/11/27 00:56:35;;;;;;;28.25;15.55;;;2.30;99.90;;;;;;5071834;28;20052;-71
2021/11/27 00:59:03;;;;;;;26.10;14.63;;;2.30;99.90;;;;;;5085293;28;20394;-71
2021/11/27 01:01:32;;;;;;;30.95;14.82;;;2.40;99.90;;;;;;5094225;28;20428;-72
2021/11/27 01:04:01;;;;;;;25.77;14.25;;;2.40;99.90;;;;;;5085107;28;20050;-70
2021/11/27 01:06:29;;;;;;;25.60;14.90;;;2.30;99.90;;;;;;5075295;28;20040;-71
2021/11/27 01:08:59;;;;;;;29.23;15.15;;;2.30;99.90;;;;;;5086350;28;20060;-71
2021/11/27 01:11:37;;;;;;;26.98;14.25;;;2.30;99.90;;;;;;5092330;28;20055;-71
2021/11/27 01:14:12;;;;;;;27.15;13.77;;;2.30;99.90;;;;;;5080603;28;20138;-71
2021/11/27 01:16:43;;;;;;;25.83;13.50;;;2.40;99.90;;;;;;5081958;28;20118;-71
2021/11/27 01:19:11;;;;;;;25.73;13.68;;;2.40;99.90;;;;;;5085919;28;20036;-71
2021/11/27 01:21:42;;;;;;;25.67;13.68;;;2.40;99.90;;;;;;5071636;28;20563;-71
2021/11/27 01:24:13;;;;;;;24.80;14.15;;;2.40;99.90;;;;;;5063029;28;20043;-71
2021/11/27 01:26:40;;;;;;;28.38;14.38;;;2.50;99.90;;;;;;5077581;28;20114;-71
2021/11/27 01:29:28;;;;;;;23.75;12.82;;;2.40;99.90;;;;;;5094296;28;20130;-71
2021/11/27 01:31:56;;;;;;;24.02;13.75;;;2.50;99.90;;;;;;5094323;28;20048;-71
2021/11/27 01:34:24;;;;;;;25.27;13.35;;;2.50;99.90;;;;;;5094058;28;20043;-71
2021/11/27 01:36:51;;;;;;;22.50;13.00;;;2.50;99.90;;;;;;5064069;28;20097;-70
2021/11/27 01:39:20;;;;;;;23.80;12.35;;;2.50;99.90;;;;;;5081850;28;20043;-71
2021/11/27 01:41:47;;;;;;;23.85;12.50;;;2.50;99.90;;;;;;5111755;28;20055;-71
2021/11/27 01:44:15;;;;;;;25.70;14.18;;;2.50;99.90;;;;;;5076113;28;20070;-71
2021/11/27 01:46:43;;;;;;;23.17;12.75;;;2.50;99.90;;;;;;5058878;28;20453;-71
2021/11/27 01:49:11;;;;;;;23.45;12.82;;;2.50;99.90;;;;;;5055728;28;20048;-71
2021/11/27 01:51:39;;;;;;;22.15;13.13;;;2.60;99.90;;;;;;5075225;28;20145;-71
2021/11/27 01:54:11;;;;;;;22.15;11.75;;;2.50;99.90;;;;;;5077576;28;20048;-71
2021/11/27 01:56:48;;;;;;;20.87;11.93;;;2.50;99.90;;;;;;5092753;28;20044;-71
2021/11/27 01:59:24;;;;;;;24.55;12.95;;;2.50;99.90;;;;;;5077854;28;20285;-71
2021/11/27 02:01:53;;;;;;;20.52;11.23;;;2.60;99.90;;;;;;5087232;28;20083;-71
2021/11/27 02:04:26;;;;;;;20.88;12.43;;;2.60;99.90;;;;;;5082518;28;20048;-71
2021/11/27 02:06:54;;;;;;;21.38;12.27;;;2.70;99.90;;;;;;5063800;28;20040;-71
2021/11/27 02:09:26;;;;;;;21.50;12.35;;;2.60;99.90;;;;;;5082971;28;20402;-71
2021/11/27 02:11:56;;;;;;;18.83;11.38;;;2.60;99.90;;;;;;5092937;28;20593;-71
2021/11/27 02:14:24;;;;;;;20.65;12.52;;;2.60;99.90;;;;;;5063750;28;20097;-71
2021/11/27 02:17:14;;;;;;;23.00;11.57;;;2.60;99.90;;;;;;5106897;28;20039;-71
2021/11/27 02:19:45;;;;;;;19.87;11.77;;;2.70;99.90;;;;;;5077030;28;20086;-71
2021/11/27 02:22:13;;;;;;;20.08;11.63;;;2.70;99.90;;;;;;5074913;28;20039;-71
2021/11/27 02:24:45;;;;;;;21.50;12.35;;;2.60;99.90;;;;;;5086811;28;20036;-71
2021/11/27 02:27:13;;;;;;;20.67;11.38;;;2.70;99.90;;;;;;5078184;28;20093;-71
2021/11/27 02:29:41;;;;;;;17.05;10.60;;;2.70;99.90;;;;;;5082434;28;20591;-71
2021/11/27 02:32:09;;;;;;;19.90;11.35;;;2.70;99.90;;;;;;5090160;28;20046;-71
2021/11/27 02:34:37;;;;;;;17.88;10.77;;;2.70;99.90;;;;;;5091621;28;20075;-71
2021/11/27 02:37:08;;;;;;;17.30;11.48;;;2.70;99.90;;;;;;5089252;28;20535;-71
2021/11/27 02:39:41;;;;;;;21.58;11.18;;;2.70;99.90;;;;;;5082053;28;20414;-71
2021/11/27 02:42:09;;;;;;;17.25;10.00;;;2.70;99.90;;;;;;5109450;28;20646;-71
2021/11/27 02:44:38;;;;;;;19.27;10.60;;;2.70;99.90;;;;;;5074267;28;20036;-71
2021/11/27 02:47:07;;;;;;;19.15;11.05;;;2.60;99.90;;;;;;5076482;28;20114;-71
2021/11/27 02:49:36;;;;;;;19.83;11.38;;;2.60;99.90;;;;;;5060996;28;20040;-71
2021/11/27 02:52:05;;;;;;;20.75;11.35;;;2.60;99.90;;;;;;5086755;28;20063;-71
2021/11/27 02:54:33;;;;;;;18.40;10.20;;;2.60;99.90;;;;;;5074586;28;20044;-71
2021/11/27 02:57:02;;;;;;;20.27;11.05;;;2.60;99.90;;;;;;5084481;28;20047;-71
2021/11/27 02:59:30;;;;;;;19.20;11.02;;;2.60;99.90;;;;;;5085640;28;20046;-71
2021/11/27 03:02:02;;;;;;;19.20;11.38;;;2.60;99.90;;;;;;5086194;28;20047;-71
2021/11/27 03:04:35;;;;;;;19.60;11.52;;;2.60;99.90;;;;;;5067974;28;20082;-71
2021/11/27 03:07:03;;;;;;;21.20;11.60;;;2.60;99.90;;;;;;5083687;28;20465;-71
2021/11/27 03:09:31;;;;;;;18.70;11.15;;;2.60;99.90;;;;;;5092044;28;20238;-71
2021/11/27 03:12:01;;;;;;;20.98;11.57;;;2.60;99.90;;;;;;5081281;28;20044;-71
2021/11/27 03:14:29;;;;;;;19.60;11.23;;;2.60;99.90;;;;;;5058758;28;20071;-71
2021/11/27 03:16:59;;;;;;;20.08;11.65;;;2.60;99.90;;;;;;5086190;28;20402;-71
2021/11/27 03:19:30;;;;;;;16.80;10.20;;;2.60;99.90;;;;;;5082092;28;20559;-71
2021/11/27 03:21:58;;;;;;;19.05;11.88;;;2.60;99.90;;;;;;5070987;28;20074;-71
2021/11/27 03:24:30;;;;;;;;;;;2.60;99.90;;;;;;5082633;28;20031;-71
2021/11/27 03:26:58;;;;;;;18.63;10.82;;;2.60;99.90;;;;;;5071512;28;19927;-71
2021/11/27 03:29:26;;;;;;;18.25;11.25;;;2.60;99.90;;;;;;5076004;28;20035;-71
2021/11/27 03:32:15;;;;;;;16.65;10.13;;;2.60;99.90;;;;;;5094159;28;20040;-71
2021/11/27 03:34:56;;;;;;;20.83;11.75;;;2.60;99.90;;;;;;5076569;28;20052;-71
2021/11/27 03:37:31;;;;;;;22.92;11.25;;;2.60;99.90;;;;;;5059716;28;20056;-71
2021/11/27 03:40:01;;;;;;;19.90;11.30;;;2.60;99.90;;;;;;5055927;28;20051;-71
2021/11/27 03:42:28;;;;;;;20.45;11.32;;;2.60;99.90;;;;;;5085519;28;20032;-71
2021/11/27 03:44:56;;;;;;;19.08;11.07;;;2.60;99.90;;;;;;5093453;28;20454;-71
2021/11/27 03:47:24;;;;;;;17.63;10.85;;;2.60;99.90;;;;;;5082008;28;20042;-71
2021/11/27 03:49:53;;;;;;;20.55;12.15;;;2.60;99.90;;;;;;5055926;28;20052;-71
2021/11/27 03:52:22;;;;;;;22.65;11.07;;;2.70;99.90;;;;;;5074730;28;20059;-71
2021/11/27 03:54:51;;;;;;;19.88;11.50;;;2.70;99.90;;;;;;5103969;28;20051;-71
2021/11/27 03:57:18;;;;;;;17.80;11.13;;;2.70;99.90;;;;;;5085861;28;20093;-71
2021/11/27 03:59:46;;;;;;;17.92;10.65;;;2.70;99.90;;;;;;5073162;28;20054;-71
2021/11/27 04:02:15;;;;;;;18.77;10.85;;;2.70;99.90;;;;;;5070145;28;20409;-71
2021/11/27 04:04:43;;;;;;;19.35;9.95;;;2.70;99.90;;;;;;5075256;28;20563;-71
2021/11/27 04:07:11;;;;;;;18.45;10.00;;;2.70;99.90;;;;;;5104769;28;20375;-71
2021/11/27 04:09:41;;;;;;;17.95;11.10;;;2.70;99.90;;;;;;5074903;28;20036;-71
2021/11/27 04:12:08;;;;;;;18.85;10.57;;;2.70;99.90;;;;;;5080510;28;20038;-71
2021/11/27 04:14:43;;;;;;;19.17;11.27;;;2.80;99.90;;;;;;5079415;28;20049;-71
2021/11/27 04:17:10;;;;;;;18.08;10.65;;;2.80;99.90;;;;;;5080342;28;20123;-71
2021/11/27 04:19:39;;;;;;;19.08;10.85;;;2.80;99.90;;;;;;5073859;28;20067;-71
2021/11/27 04:22:09;;;;;;;17.42;10.93;;;2.80;99.90;;;;;;5092611;28;20043;-71
2021/11/27 04:24:42;;;;;;;16.63;10.23;;;2.80;99.90;;;;;;5061983;28;20052;-71
2021/11/27 04:27:09;;;;;;;18.42;10.70;;;2.80;99.90;;;;;;5076564;28;20032;-71
2021/11/27 04:29:37;;;;;;;19.83;11.18;;;2.80;99.90;;;;;;5070435;28;20133;-71
2021/11/27 04:32:06;;;;;;;18.77;10.77;;;2.70;99.90;;;;;;5082308;28;20046;-71
2021/11/27 04:34:33;;;;;;;17.90;10.10;;;2.70;99.90;;;;;;5075376;28;20066;-71
2021/11/27 04:37:01;;;;;;;18.55;10.95;;;2.80;99.90;;;;;;5063933;28;20044;-70
2021/11/27 04:39:29;;;;;;;19.13;10.82;;;2.80;99.90;;;;;;5094429;28;20046;-71
2021/11/27 04:41:57;;;;;;;18.05;9.95;;;2.70;99.90;;;;;;5110632;28;20067;-70
2021/11/27 04:44:24;;;;;;;16.33;10.55;;;2.80;99.90;;;;;;5109841;28;20038;-71
2021/11/27 04:46:51;;;;;;;18.98;10.77;;;2.80;99.90;;;;;;5074583;28;20051;-71
2021/11/27 04:49:19;;;;;;;17.52;9.32;;;2.80;99.90;;;;;;5075942;28;20105;-71
2021/11/27 04:51:46;;;;;;;14.95;9.88;;;2.90;99.90;;;;;;5074231;28;20043;-71
2021/11/27 04:54:19;;;;;;;16.67;9.95;;;2.80;99.90;;;;;;5074708;28;20044;-71
2021/11/27 04:56:46;;;;;;;15.43;9.40;;;2.80;99.90;;;;;;5088560;28;20048;-71
2021/11/27 04:59:14;;;;;;;25.30;11.73;;;2.80;99.90;;;;;;5087318;28;20048;-70
2021/11/27 05:01:41;;;;;;;22.60;12.70;;;2.80;99.90;;;;;;5089576;28;20509;-71
2021/11/27 05:04:10;;;;;;;15.98;9.13;;;2.80;99.90;;;;;;5085033;28;20044;-71
2021/11/27 05:06:39;;;;;;;15.10;9.05;;;2.80;99.90;;;;;;5094767;28;20378;-71
2021/11/27 05:09:07;;;;;;;15.48;9.50;;;2.80;99.90;;;;;;5084312;28;20040;-71
2021/11/27 05:11:34;;;;;;;17.15;9.88;;;2.70;99.90;;;;;;5068639;28;20583;-71
2021/11/27 05:14:02;;;;;;;15.07;9.23;;;2.70;99.90;;;;;;5111725;28;20502;-71
2021/11/27 05:16:30;;;;;;;16.30;10.20;;;2.80;99.90;;;;;;5090751;28;20050;-71
2021/11/27 05:18:58;;;;;;;17.42;10.00;;;2.80;99.90;;;;;;5074203;28;20040;-71
2021/11/27 05:21:57;;;;;;;15.00;8.43;;;2.80;99.90;;;;;;5087389;28;20069;-71
2021/11/27 05:24:25;;;;;;;15.18;8.60;;;2.90;99.90;;;;;;5091756;28;20079;-71
2021/11/27 05:27:18;;;;;;;15.02;7.85;;;2.90;99.90;;;;;;5013102;28;20049;-71
2021/11/27 05:30:07;;;;;;;16.02;8.15;;;2.90;99.90;;;;;;5000978;28;20041;-71
2021/11/27 05:35:30;;;;;;;12.98;7.32;;;2.90;99.90;;;;;;5031666;28;20108;-71
2021/11/27 05:37:58;;;;;;;15.52;8.55;;;2.90;99.90;;;;;;5024104;28;20136;-71
2021/11/27 05:40:26;;;;;;;13.50;8.15;;;2.90;99.90;;;;;;5027704;28;20045;-71
2021/11/27 05:42:53;;;;;;;13.57;9.25;;;2.80;99.90;;;;;;5033925;28;20527;-71
2021/11/27 05:45:27;;;;;;;15.43;8.35;;;2.80;99.90;;;;;;5027630;28;20113;-70
2021/11/27 05:47:57;;;;;;;17.48;9.85;;;2.80;99.90;;;;;;5010448;28;20488;-75
2021/11/27 05:50:33;;;;;;;14.95;8.82;;;2.80;99.90;;;;;;5000074;28;20055;-70
2021/11/27 05:53:01;;;;;;;14.68;8.27;;;2.80;99.90;;;;;;5011640;28;20558;-70
2021/11/27 05:55:30;;;;;;;13.30;7.70;;;2.90;99.90;;;;;;5010776;28;20041;-70
2021/11/27 05:57:58;;;;;;;14.82;8.07;;;2.90;99.90;;;;;;5024609;28;20045;-70
2021/11/27 06:00:25;;;;;;;11.43;7.13;;;2.90;99.90;;;;;;5033332;28;20488;-70
2021/11/27 06:02:53;;;;;;;13.90;7.10;;;2.90;99.90;;;;;;5010305;28;20046;-71
2021/11/27 06:05:20;;;;;;;14.45;7.43;;;2.90;99.90;;;;;;5077136;28;20036;-70
2021/11/27 06:07:47;;;;;;;13.45;7.10;;;2.90;99.90;;;;;;5084138;28;20036;-70
2021/11/27 06:10:14;;;;;;;11.05;7.13;;;2.90;99.90;;;;;;5103930;28;20598;-70
2021/11/27 06:12:42;;;;;;;12.93;7.40;;;2.90;99.90;;;;;;5088190;28;20118;-70
2021/11/27 06:15:10;;;;;;;11.52;6.60;;;2.90;99.90;;;;;;5103353;28;20036;-70
2021/11/27 06:17:37;;;;;;;10.23;6.07;;;2.90;99.90;;;;;;5102355;28;20063;-71
2021/11/27 06:20:05;;;;;;;11.43;6.82;;;2.90;99.90;;;;;;5081187;28;20036;-71
2021/11/27 06:22:32;;;;;;;12.20;6.70;;;2.90;99.90;;;;;;5110237;28;20493;-70
2021/11/27 06:25:19;;;;;;;11.73;6.95;;;2.90;99.90;;;;;;5078696;28;20051;-70
2021/11/27 06:27:47;;;;;;;11.70;6.25;;;2.90;99.90;;;;;;5102087;28;20042;-70
2021/11/27 06:30:14;;;;;;;9.88;6.45;;;2.90;99.90;;;;;;5090585;28;20040;-70
2021/11/27 06:32:41;;;;;;;11.93;6.85;;;3.00;99.90;;;;;;5078869;28;20126;-70
2021/11/27 06:35:09;;;;;;;10.63;6.70;;;2.90;99.90;;;;;;5110149;28;20054;-70
2021/11/27 06:37:37;;;;;;;12.02;7.20;;;2.80;99.90;;;;;;5089888;28;20573;-70
2021/11/27 06:40:09;;;;;;;12.35;6.88;;;2.70;99.90;;;;;;5075627;28;20051;-70
2021/11/27 06:42:51;;;;;;;12.77;7.47;;;2.50;99.90;;;;;;5084558;28;20035;-70
2021/11/27 06:45:34;;;;;;;11.85;7.18;;;2.40;99.90;;;;;;5070417;28;20052;-70
2021/11/27 06:48:05;;;;;;;12.88;7.80;;;2.30;99.90;;;;;;5083444;28;20040;-70
2021/11/27 06:50:32;;;;;;;13.02;7.78;;;2.20;99.90;;;;;;5100800;28;20040;-68
2021/11/27 06:52:59;;;;;;;12.15;7.47;;;2.10;99.90;;;;;;5111387;28;20043;-69
2021/11/27 06:55:27;;;;;;;13.93;8.43;;;2.10;99.90;;;;;;5084651;28;20528;-69
2021/11/27 06:57:54;;;;;;;16.10;7.20;;;2.10;99.90;;;;;;5056343;28;20062;-69
2021/11/27 07:00:22;;;;;;;14.90;8.35;;;2.10;99.90;;;;;;5111101;28;20070;-69
2021/11/27 07:03:08;;;;;;;15.23;8.43;;;2.10;99.90;;;;;;5096991;28;20062;-69
2021/11/27 07:05:54;;;;;;;13.38;7.75;;;2.10;99.90;;;;;;5107292;28;20044;-68
2021/11/27 07:08:23;;;;;;;14.75;7.90;;;2.10;99.90;;;;;;5077497;28;20050;-68
2021/11/27 07:11:02;;;;;;;13.70;8.13;;;2.10;99.90;;;;;;5090385;28;20398;-68
2021/11/27 07:13:30;;;;;;;14.15;8.25;;;2.10;99.90;;;;;;5096274;28;20097;-69
2021/11/27 07:15:58;;;;;;;14.38;8.07;;;2.20;99.90;;;;;;5092377;28;20036;-68
2021/11/27 07:18:25;;;;;;;13.43;7.85;;;2.20;99.90;;;;;;5093451;28;20047;-68
2021/11/27 07:20:53;;;;;;;14.05;8.10;;;2.20;99.90;;;;;;5117164;28;20047;-69
2021/11/27 07:23:20;;;;;;;14.63;7.90;;;2.20;99.90;;;;;;5117237;28;20048;-70
2021/11/27 07:25:47;;;;;;;14.10;8.32;;;2.20;99.90;;;;;;5115634;28;20032;-69
2021/11/27 07:28:18;;;;;;;12.85;7.65;;;2.20;99.90;;;;;;5101718;28;20518;-68
2021/11/27 07:30:45;;;;;;;15.52;8.73;;;2.20;99.90;;;;;;5107898;28;20565;-68
2021/11/27 07:33:12;;;;;;;13.18;7.68;;;2.20;99.90;;;;;;5117929;28;20550;-68
2021/11/27 07:35:40;;;;;;;12.52;7.05;;;2.30;99.90;;;;;;5110787;28;20035;-70
2021/11/27 07:38:07;;;;;;;12.95;7.72;;;2.30;99.90;;;;;;5116564;28;20078;-70
2021/11/27 07:40:34;;;;;;;12.85;7.60;;;2.40;99.90;;;;;;5105968;28;20047;-68
2021/11/27 07:43:05;;;;;;;12.43;7.18;;;2.40;99.90;;;;;;5110559;28;20395;-68
2021/11/27 07:45:34;;;;;;;11.95;7.05;;;2.40;99.90;;;;;;5117180;28;20039;-67
2021/11/27 07:48:20;;;;;;;13.07;6.72;;;2.40;99.90;;;;;;5097464;28;20058;-68
2021/11/27 07:51:06;;;;;;;12.80;7.28;;;2.50;99.90;;;;;;5115662;28;20027;-68
2021/11/27 07:53:52;;;;;;;14.63;6.97;;;2.50;99.90;;;;;;5096937;28;20042;-68
2021/11/27 07:56:20;;;;;;;12.25;7.03;;;2.50;99.90;;;;;;5112932;28;20059;-68
2021/11/27 07:58:47;;;;;;;11.82;7.10;;;2.60;99.90;;;;;;5092649;28;20036;-68
2021/11/27 08:01:15;;;;;;;11.40;6.47;;;2.60;99.90;;;;;;5115257;28;20081;-69
2021/11/27 08:03:43;;;;;;;10.93;6.35;;;2.60;99.90;;;;;;5114073;28;20120;-68
2021/11/27 08:06:10;;;;;;;10.57;6.10;;;2.70;99.90;;;;;;5084400;28;20052;-69
2021/11/27 08:08:38;;;;;;;10.20;6.10;;;2.70;99.90;;;;;;5116982;28;20434;-68
2021/11/27 08:11:06;;;;;;;9.20;6.20;;;2.80;99.90;;;;;;5085704;28;20501;-68
2021/11/27 08:13:37;;;;;;;11.27;6.28;;;2.80;99.90;;;;;;5113935;28;20043;-68
2021/11/27 08:16:04;;;;;;;11.18;5.93;;;2.90;99.90;;;;;;5113952;28;20059;-68
2021/11/27 08:18:32;;;;;;;12.57;5.40;;;3.10;99.90;;;;;;5110958;28;20048;-69
2021/11/27 08:21:00;;;;;;;10.88;6.40;;;3.20;99.90;;;;;;5090847;28;20067;-69
2021/11/27 08:23:47;;;;;;;12.05;5.70;;;3.40;99.90;;;;;;5088460;28;20486;-68
2021/11/27 08:26:15;;;;;;;10.65;5.80;;;3.50;99.90;;;;;;5110272;28;20516;-68
2021/11/27 08:28:43;;;;;;;10.25;5.22;;;3.60;99.90;;;;;;5088070;28;20036;-68
2021/11/27 08:31:10;;;;;;;11.70;5.75;;;3.70;99.90;;;;;;5106125;28;20047;-68
2021/11/27 08:33:38;;;;;;;12.05;5.63;;;3.80;99.90;;;;;;5110203;28;20040;-69
2021/11/27 08:36:05;;;;;;;7.95;4.88;;;3.80;99.90;;;;;;5106921;28;20071;-68
2021/11/27 08:38:32;;;;;;;12.48;5.68;;;3.70;99.90;;;;;;5107342;28;20485;-69
2021/11/27 08:41:00;;;;;;;9.23;5.05;;;3.60;99.90;;;;;;5094511;28;20529;-68
2021/11/27 08:43:28;;;;;;;9.13;4.93;;;3.50;99.90;;;;;;5101485;28;20555;-68
2021/11/27 08:45:55;;;;;;;10.73;5.47;;;3.50;99.90;;;;;;5106652;28;20205;-68
2021/11/27 08:48:23;;;;;;;9.73;5.18;;;3.60;99.90;;;;;;5113194;28;20036;-68
2021/11/27 08:50:50;;;;;;;8.93;5.00;;;3.60;99.90;;;;;;5087365;28;20052;-68
2021/11/27 08:53:17;;;;;;;9.98;5.07;;;3.80;99.90;;;;;;5110986;28;20036;-68
2021/11/27 08:55:45;;;;;;;8.73;5.07;;;3.90;99.90;;;;;;5102728;28;20125;-68
2021/11/27 08:58:12;;;;;;;10.35;5.28;;;4.00;99.90;;;;;;5110736;28;20040;-68
2021/11/27 09:00:40;;;;;;;12.25;6.00;;;4.20;99.90;;;;;;5110967;28;20117;-68
2021/11/27 09:03:07;;;;;;;9.45;5.68;;;4.50;99.90;;;;;;5091675;28;20448;-69
2021/11/27 09:05:35;;;;;;;9.23;5.40;;;4.60;99.90;;;;;;5111466;28;20049;-69
2021/11/27 09:08:03;;;;;;;8.60;4.53;;;4.70;99.90;;;;;;5113383;28;20482;-68
2021/11/27 09:10:31;;;;;;;8.23;5.63;;;4.80;99.90;;;;;;5106068;28;20036;-69
2021/11/27 09:12:59;;;;;;;9.30;5.40;;;4.90;99.90;;;;;;5108173;28;20054;-68
2021/11/27 09:15:26;;;;;;;9.00;4.93;;;4.80;99.90;;;;;;5082249;28;20398;-69
2021/11/27 09:17:54;;;;;;;9.18;5.75;;;4.90;99.90;;;;;;5111522;28;20591;-68
2021/11/27 09:20:22;;;;;;;10.02;5.45;;;4.80;99.90;;;;;;5108227;28;20170;-70
2021/11/27 09:22:49;;;;;;;8.20;5.20;;;5.10;99.90;;;;;;5105263;28;20036;-68
2021/11/27 09:25:17;;;;;;;8.50;5.15;;;5.20;99.90;;;;;;5081215;28;20035;-68
2021/11/27 09:27:44;;;;;;;9.80;4.97;;;5.20;99.90;;;;;;5092589;28;20054;-68
2021/11/27 09:30:11;;;;;;;7.97;5.05;;;5.30;99.90;;;;;;5108484;28;20126;-68
2021/11/27 09:32:39;;;;;;;10.10;5.65;;;5.20;99.90;;;;;;5087778;28;20104;-68
2021/11/27 09:35:07;;;;;;;9.27;5.72;;;5.20;99.90;;;;;;5098480;28;20512;-68
2021/11/27 09:37:34;;;;;;;8.80;5.07;;;5.30;99.90;;;;;;5092026;28;20482;-68
2021/11/27 09:40:05;;;;;;;8.75;5.20;;;5.40;99.90;;;;;;5111625;28;20051;-67
2021/11/27 09:42:33;;;;;;;9.13;5.80;;;5.40;99.90;;;;;;5104256;28;20043;-68
2021/11/27 09:45:03;;;;;;;8.73;5.45;;;5.50;99.90;;;;;;5102932;28;20036;-68
2021/11/27 09:47:32;;;;;;;9.60;5.55;;;5.60;99.90;;;;;;5100069;28;20035;-68
2021/11/27 09:50:06;;;;;;;7.68;5.03;;;5.70;99.90;;;;;;5112376;28;20466;-68
2021/11/27 09:52:34;;;;;;;9.05;5.60;;;5.80;99.90;;;;;;5103263;28;20047;-68
2021/11/27 09:55:02;;;;;;;10.52;5.13;;;5.90;99.90;;;;;;5101429;28;20044;-68
2021/11/27 09:57:29;;;;;;;10.40;5.88;;;6.20;99.90;;;;;;5096676;28;20043;-69
2021/11/27 09:59:57;;;;;;;8.88;4.80;;;6.30;99.90;;;;;;5094070;28;20036;-68
2021/11/27 10:02:25;;;;;;;9.23;5.18;;;6.30;99.90;;;;;;5100486;28;20040;-67
2021/11/27 10:05:14;;;;;;;8.45;4.65;;;6.10;99.90;;;;;;5103797;28;20031;-68
2021/11/27 10:07:42;;;;;;;9.27;5.40;;;6.10;99.90;;;;;;5106624;28;20036;-68
2021/11/27 10:10:11;;;;;;;8.20;5.15;;;5.90;99.90;;;;;;5079809;28;20044;-68
2021/11/27 10:12:40;;;;;;;11.20;4.82;;;5.80;99.90;;;;;;5092016;28;20406;-68
2021/11/27 10:15:09;;;;;;;7.53;4.70;;;5.80;99.90;;;;;;5098376;28;21455;-68
2021/11/27 10:17:37;;;;;;;8.40;4.80;;;6.10;99.90;;;;;;5091888;28;20044;-68
2021/11/27 10:20:06;;;;;;;8.52;5.32;;;6.30;99.90;;;;;;5078085;28;20052;-68
2021/11/27 10:22:51;;;;;;;7.57;4.90;;;6.20;99.90;;;;;;5067033;28;20043;-69
2021/11/27 10:25:23;;;;;;;8.45;4.95;;;6.30;99.90;;;;;;5094003;28;20036;-68
2021/11/27 10:28:28;;;;;;;6.95;4.45;;;6.40;99.90;;;;;;5112182;28;20433;-68
2021/11/27 10:31:02;;;;;;;7.18;4.30;;;6.70;99.90;;;;;;5098693;28;20533;-68
2021/11/27 10:33:36;;;;;;;7.88;4.32;;;7.40;99.90;;;;;;5096730;28;20063;-68
2021/11/27 10:36:07;;;;;;;8.25;4.70;;;7.60;99.90;;;;;;5102811;28;20433;-69
2021/11/27 10:38:35;;;;;;;7.53;4.25;;;7.90;99.90;;;;;;5093379;28;20048;-69
2021/11/27 10:41:02;;;;;;;8.27;4.60;;;7.60;99.90;;;;;;5103960;28;20038;-68
2021/11/27 10:43:31;;;;;;;8.13;4.80;;;7.30;99.90;;;;;;5099029;28;20071;-68
2021/11/27 10:46:30;;;;;;;8.98;4.95;;;6.80;99.90;;;;;;5105702;28;20035;-68
2021/11/27 10:48:58;;;;;;;8.35;4.82;;;6.40;99.90;;;;;;5080467;28;20541;-68
2021/11/27 10:51:25;;;;;;;7.30;4.57;;;6.20;99.90;;;;;;5091791;28;20135;-68
2021/11/27 10:53:59;;;;;;;7.38;4.47;;;6.10;99.90;;;;;;5100696;28;20104;-69
2021/11/27 10:56:39;;;;;;;7.28;4.80;;;6.00;99.90;;;;;;5084875;28;20504;-68
2021/11/27 10:59:07;;;;;;;6.95;4.30;;;5.70;99.90;;;;;;5084381;28;20150;-69
2021/11/27 11:02:04;;;;;;;8.60;4.50;;;5.70;99.90;;;;;;5090460;28;20042;-68
2021/11/27 11:04:33;;;;;;;10.18;4.78;;;5.80;99.90;;;;;;5102023;28;20096;-68
2021/11/27 11:07:25;;;;;;;8.50;4.10;;;6.00;99.90;;;;;;5106539;28;20042;-68
2021/11/27 11:10:08;;;;;;;7.78;4.75;;;6.20;99.90;;;;;;5103533;28;20042;-69
2021/11/27 11:12:44;;;;;;;8.02;4.50;;;6.50;99.90;;;;;;5086025;28;20074;-69
2021/11/27 11:15:34;;;;;;;8.07;4.32;;;6.80;99.90;;;;;;5105553;28;20036;-68
2021/11/27 11:18:21;;;;;;;8.02;4.07;;;7.20;99.90;;;;;;5101576;28;20101;-68
2021/11/27 11:20:53;;;;;;;8.57;3.70;;;8.40;99.90;;;;;;5090811;28;20052;-68
2021/11/27 11:23:23;;;;;;;7.80;3.80;;;8.30;99.90;;;;;;5090655;28;20074;-68
2021/11/27 11:26:07;;;;;;;6.72;3.78;;;8.00;99.90;;;;;;5090956;28;20059;-69
2021/11/27 11:28:47;;;;;;;8.20;3.88;;;7.70;99.90;;;;;;5094053;28;20479;-69
2021/11/27 11:31:20;;;;;;;8.57;4.18;;;7.50;99.90;;;;;;5072711;28;20040;-69
2021/11/27 11:33:52;;;;;;;8.98;3.67;;;7.50;99.90;;;;;;5090123;28;20048;-68
2021/11/27 11:36:21;;;;;;;6.15;3.67;;;7.30;99.90;;;;;;5096997;28;20044;-69
2021/11/27 11:38:54;;;;;;;5.80;3.40;;;7.20;99.90;;;;;;5091110;28;20044;-69
2021/11/27 11:41:24;;;;;;;6.88;3.72;;;7.00;99.90;;;;;;5091592;28;20039;-68
2021/11/27 11:43:53;;;;;;;9.65;3.90;;;6.80;99.90;;;;;;5094918;28;20047;-69
2021/11/27 11:46:23;;;;;;;6.18;3.70;;;6.70;99.90;;;;;;5071852;28;20051;-69
2021/11/27 11:48:56;;;;;;;6.13;3.53;;;6.60;99.90;;;;;;5095507;28;20513;-68
2021/11/27 11:51:35;;;;;;;6.03;3.55;;;6.60;99.90;;;;;;5094270;28;20044;-69
2021/11/27 11:54:06;;;;;;;6.60;3.42;;;6.80;99.90;;;;;;5090936;28;20054;-69
2021/11/27 11:56:40;;;;;;;5.30;3.08;;;7.40;99.90;;;;;;5113342;28;20044;-69
2021/11/27 11:59:27;;;;;;;6.18;3.38;;;8.10;99.90;;;;;;5108843;28;20051;-68
2021/11/27 12:02:28;;;;;;;6.22;2.83;;;8.70;99.90;;;;;;5103480;28;20475;-69
2021/11/27 12:04:58;;;;;;;4.93;3.03;;;10.40;99.90;;;;;;5101962;28;20047;-69
2021/11/27 12:07:44;;;;;;;4.95;2.65;;;11.30;99.90;;;;;;5086565;28;20581;-69
2021/11/27 12:10:18;;;;;;;4.65;2.65;;;11.40;99.90;;;;;;5102667;28;20480;-69
2021/11/27 12:13:05;;;;;;;5.15;2.65;;;11.20;99.90;;;;;;5093129;28;20050;-68
2021/11/27 12:15:35;;;;;;;3.70;2.28;;;11.10;99.90;;;;;;5098360;28;20487;-68
2021/11/27 12:18:20;;;;;;;5.05;2.55;;;10.20;99.90;;;;;;5074196;28;20048;-68
2021/11/27 12:20:53;;;;;;;5.03;2.22;;;9.50;99.90;;;;;;5094177;28;20052;-67
2021/11/27 12:23:27;;;;;;;4.32;2.55;;;8.70;99.90;;;;;;5109548;28;20039;-68
2021/11/27 12:26:06;;;;;;;4.72;2.60;;;8.10;99.90;;;;;;5098096;28;20031;-66
2021/11/27 12:28:36;;;;;;;4.50;2.42;;;7.40;99.90;;;;;;5104747;28;20047;-66
2021/11/27 12:31:06;;;;;;;5.20;3.10;;;6.90;99.90;;;;;;5093404;28;20052;-65
2021/11/27 12:33:58;;;;;;;4.28;2.40;;;6.60;99.90;;;;;;5113141;28;20114;-66
2021/11/27 12:36:28;;;;;;;5.55;3.10;;;6.40;99.90;;;;;;5110896;28;20458;-66
2021/11/27 12:39:07;;;;;;;5.05;3.03;;;6.20;99.90;;;;;;5102076;28;20040;-65
2021/11/27 12:41:37;;;;;;;4.75;2.70;;;6.10;99.90;;;;;;5104083;28;20474;-67
2021/11/27 12:44:40;;;;;;;6.43;3.20;;;5.90;99.90;;;;;;5081764;28;20036;-66
2021/11/27 12:47:20;;;;;;;8.18;3.17;;;5.80;99.90;;;;;;5098943;28;20047;-66
2021/11/27 12:49:47;;;;;;;5.60;3.20;;;5.80;99.90;;;;;;5093276;28;20063;-66
2021/11/27 12:52:18;;;;;;;7.55;3.92;;;5.80;99.90;;;;;;5099420;28;20044;-66
2021/11/27 12:54:54;;;;;;;6.05;3.30;;;5.80;99.90;;;;;;5076957;28;20123;-66
2021/11/27 12:57:26;;;;;;;6.30;3.28;;;5.90;99.90;;;;;;5101449;28;20149;-66
2021/11/27 13:00:18;;;;;;;7.20;3.70;;;5.90;99.90;;;;;;5091589;28;20490;-66
2021/11/27 13:03:00;;;;;;;6.72;3.83;;;6.00;99.90;;;;;;5099268;28;20039;-66
2021/11/27 13:05:31;;;;;;;6.07;3.25;;;5.90;99.90;;;;;;5110572;28;20148;-65
2021/11/27 13:08:00;;;;;;;8.10;3.67;;;6.00;99.90;;;;;;5081944;28;20044;-66
2021/11/27 13:10:42;;;;;;;8.82;3.97;;;6.00;99.90;;;;;;5108493;28;20043;-66